Bellwood, Nebraska
Current Conditions -  °F | °C
As of 9:15 PM on Wednesday 22 Oct 2014 (Local Time) from KOLU Reporting Station
Overcast Overcast  
Wind Chill: 61°   Ceiling: 3800
Heat Index: 61°   Visibility: 10mi
Dew Point: 57°   Wind: 5mph
Humidity: 88%   Direction: 170°S
Pressure: 30.04"   Gusts: NA
Location:  41.34°N, 97.24°W
Report Text: KOLU 230215Z AUTO 17004KT 10SM OVC038 16/14 A3004 RMK AO1
Loading
Personal Weather Stations






























Interactive Weather Map
Tropical Storm Tracking
New forecast layout! Learn more

10-Day Weather Forecast

Advertisements
Track Severe Weather on mobile